Laurel, Iowa
Current Conditions -  °F | °C
As of 10:35 AM on Sunday 21 Dec 2014 (Local Time) from KTNU Reporting Station
Overcast Overcast  
Wind Chill: 30°   Ceiling: 1200
Heat Index: 39°   Visibility: 7mi
Dew Point: 37°   Wind: 18mph
Humidity: 93%   Direction: 190°S
Pressure: 29.96"   Gusts: NA
Location:  41.88°N, 92.92°W
Report Text: KTNU 211635Z AUTO 19016KT 7SM OVC012 04/03 A2996 RMK AO2
Loading
Personal Weather Stations






























Interactive Weather Map New forecast layout! Learn more

10-Day Weather Forecast

Advertisements
Track Severe Weather on mobile